createdAt,value
2023-05-14T00:00:22.588Z,528.00
2023-05-14T00:01:22.384Z,538.00
2023-05-14T00:02:22.569Z,528.00
2023-05-14T00:03:22.647Z,531.00
2023-05-14T00:04:22.564Z,528.00
2023-05-14T00:05:22.565Z,529.00
2023-05-14T00:06:22.592Z,527.00
2023-05-14T00:07:22.634Z,527.00
2023-05-14T00:08:22.688Z,530.00
2023-05-14T00:09:22.741Z,528.00
2023-05-14T00:10:22.956Z,531.00
2023-05-14T00:11:22.820Z,526.00
2023-05-14T00:12:22.850Z,530.00
2023-05-14T00:13:22.887Z,533.00
2023-05-14T00:14:22.925Z,532.00
2023-05-14T00:15:22.965Z,529.00
2023-05-14T00:16:23.055Z,525.00
2023-05-14T00:17:23.113Z,530.00
2023-05-14T00:18:23.075Z,522.00
2023-05-14T00:19:23.101Z,528.00
2023-05-14T00:20:23.690Z,531.00
2023-05-14T00:21:23.192Z,532.00
2023-05-14T00:22:23.230Z,530.00
2023-05-14T00:23:23.281Z,531.00
2023-05-14T00:24:23.307Z,539.00
2023-05-14T00:25:23.449Z,531.00
2023-05-14T00:26:23.405Z,533.00
2023-05-14T00:27:23.456Z,535.00
2023-05-14T00:28:23.493Z,526.00
2023-05-14T00:29:23.549Z,532.00
2023-05-14T00:30:23.792Z,529.00
2023-05-14T00:31:23.657Z,525.00
2023-05-14T00:32:23.693Z,527.00
2023-05-14T00:33:23.729Z,534.00
2023-05-14T00:34:23.752Z,526.00
2023-05-14T00:35:23.800Z,530.00
2023-05-14T00:36:23.851Z,529.00
2023-05-14T00:37:23.870Z,535.00
2023-05-14T00:38:23.907Z,532.00
2023-05-14T00:39:23.949Z,530.00
2023-05-14T00:40:24.236Z,534.00
2023-05-14T00:41:24.036Z,529.00
2023-05-14T00:42:24.084Z,536.00
2023-05-14T00:43:24.132Z,530.00
2023-05-14T00:44:24.161Z,540.00
2023-05-14T00:45:24.217Z,542.00
2023-05-14T00:46:24.274Z,541.00
2023-05-14T00:47:24.335Z,542.00
2023-05-14T00:48:24.337Z,536.00
2023-05-14T00:49:24.396Z,539.00
2023-05-14T00:50:24.652Z,528.00
2023-05-14T00:51:24.471Z,533.00
2023-05-14T00:52:24.521Z,529.00
2023-05-14T00:53:24.550Z,530.00
2023-05-14T00:54:24.604Z,534.00
2023-05-14T00:55:24.678Z,538.00
2023-05-14T00:56:24.701Z,533.00
2023-05-14T00:57:24.753Z,534.00
2023-05-14T00:58:24.808Z,531.00
2023-05-14T00:59:24.855Z,537.00
2023-05-14T01:00:25.139Z,537.00
2023-05-14T01:01:25.008Z,535.00
2023-05-14T01:02:25.043Z,538.00
2023-05-14T01:03:25.066Z,530.00
2023-05-14T01:04:25.133Z,537.00
2023-05-14T01:05:25.114Z,534.00
2023-05-14T01:06:25.162Z,535.00
2023-05-14T01:07:25.254Z,539.00
2023-05-14T01:08:25.240Z,542.00
2023-05-14T01:09:25.290Z,539.00
2023-05-14T01:10:25.616Z,540.00
2023-05-14T01:11:25.386Z,530.00
2023-05-14T01:12:25.417Z,534.00
2023-05-14T01:13:25.469Z,533.00
2023-05-14T01:14:25.516Z,544.00
2023-05-14T01:15:25.567Z,537.00
2023-05-14T01:16:25.642Z,536.00
2023-05-14T01:17:25.704Z,535.00
2023-05-14T01:18:25.687Z,543.00
2023-05-14T01:19:25.763Z,534.00
2023-05-14T01:20:25.999Z,532.00
2023-05-14T01:21:25.821Z,535.00
2023-05-14T01:22:25.863Z,534.00
2023-05-14T01:23:25.914Z,533.00
2023-05-14T01:24:25.953Z,532.00
2023-05-14T01:25:26.005Z,527.00
2023-05-14T01:26:26.044Z,525.00
2023-05-14T01:27:26.087Z,527.00
2023-05-14T01:28:26.133Z,530.00
2023-05-14T01:29:26.185Z,530.00
2023-05-14T01:30:26.467Z,531.00
2023-05-14T01:31:26.305Z,530.00
2023-05-14T01:32:26.307Z,526.00
2023-05-14T01:33:26.353Z,528.00
2023-05-14T01:34:26.395Z,531.00
2023-05-14T01:35:26.439Z,526.00
2023-05-14T01:36:26.465Z,523.00
2023-05-14T01:37:26.507Z,534.00
2023-05-14T01:38:26.558Z,527.00
2023-05-14T01:39:26.589Z,532.00
2023-05-14T01:40:26.717Z,536.00
2023-05-14T01:41:26.674Z,533.00
2023-05-14T01:42:26.721Z,528.00
2023-05-14T01:43:26.832Z,533.00
2023-05-14T01:44:26.816Z,531.00
2023-05-14T01:45:26.863Z,533.00
2023-05-14T01:46:26.922Z,536.00
2023-05-14T01:47:26.974Z,538.00
2023-05-14T01:48:26.992Z,534.00
2023-05-14T01:49:27.037Z,537.00
2023-05-14T01:50:27.099Z,539.00
2023-05-14T01:51:27.114Z,535.00
2023-05-14T01:52:27.143Z,534.00
2023-05-14T01:53:27.199Z,532.00
2023-05-14T01:54:27.238Z,534.00
2023-05-14T01:55:27.279Z,540.00
2023-05-14T01:56:27.321Z,531.00
2023-05-14T01:57:27.367Z,537.00
2023-05-14T01:58:27.406Z,538.00
2023-05-14T01:59:27.432Z,534.00
2023-05-14T02:00:27.490Z,532.00
2023-05-14T02:01:27.545Z,534.00
2023-05-14T02:02:27.575Z,534.00
2023-05-14T02:03:27.633Z,545.00
2023-05-14T02:04:27.710Z,540.00
2023-05-14T02:05:27.705Z,535.00
2023-05-14T02:06:27.723Z,541.00
2023-05-14T02:07:27.778Z,538.00
2023-05-14T02:08:27.810Z,535.00
2023-05-14T02:09:27.854Z,536.00
2023-05-14T02:10:27.866Z,537.00
2023-05-14T02:11:27.924Z,538.00
2023-05-14T02:12:27.947Z,534.00
2023-05-14T02:13:27.977Z,535.00
2023-05-14T02:14:28.020Z,533.00
2023-05-14T02:15:28.064Z,532.00
2023-05-14T02:16:28.165Z,536.00
2023-05-14T02:17:28.200Z,531.00
2023-05-14T02:18:28.220Z,535.00
2023-05-14T02:19:28.195Z,530.00
2023-05-14T02:20:28.245Z,536.00
2023-05-14T02:21:28.266Z,539.00
2023-05-14T02:22:28.305Z,529.00
2023-05-14T02:23:40.465Z,532.00
2023-05-14T02:24:29.359Z,532.00
2023-05-14T02:25:28.315Z,533.00
2023-05-14T02:26:28.288Z,537.00
2023-05-14T02:27:28.281Z,536.00
2023-05-14T02:28:28.242Z,538.00
2023-05-14T02:29:28.225Z,539.00
2023-05-14T02:30:28.225Z,536.00
2023-05-14T02:31:28.178Z,536.00
2023-05-14T02:32:28.423Z,539.00
2023-05-14T02:33:28.330Z,535.00
2023-05-14T02:34:28.285Z,537.00
2023-05-14T02:35:28.341Z,541.00
2023-05-14T02:36:28.407Z,540.00
2023-05-14T02:37:28.435Z,543.00
2023-05-14T02:38:28.483Z,534.00
2023-05-14T02:39:28.519Z,537.00
2023-05-14T02:40:28.564Z,537.00
2023-05-14T02:41:28.601Z,545.00
2023-05-14T02:42:28.644Z,533.00
2023-05-14T02:43:28.760Z,539.00
2023-05-14T02:44:28.729Z,538.00
2023-05-14T02:45:28.785Z,537.00
2023-05-14T02:46:28.825Z,539.00
2023-05-14T02:47:28.868Z,536.00
2023-05-14T02:48:28.864Z,535.00
2023-05-14T02:49:28.906Z,534.00
2023-05-14T02:50:28.939Z,541.00
2023-05-14T02:51:28.966Z,536.00
2023-05-14T02:52:29.014Z,539.00
2023-05-14T02:53:29.055Z,536.00
2023-05-14T02:54:29.107Z,543.00
2023-05-14T02:55:29.142Z,546.00
2023-05-14T02:56:29.176Z,542.00
2023-05-14T02:57:29.212Z,539.00
2023-05-14T02:58:29.258Z,545.00
2023-05-14T02:59:29.288Z,534.00
2023-05-14T03:00:29.328Z,536.00
2023-05-14T03:01:29.427Z,535.00
2023-05-14T03:02:29.494Z,531.00
2023-05-14T03:03:29.520Z,535.00
2023-05-14T03:04:29.528Z,534.00
2023-05-14T03:05:29.535Z,536.00
2023-05-14T03:06:29.579Z,540.00
2023-05-14T03:07:29.619Z,537.00
2023-05-14T03:08:29.656Z,543.00
2023-05-14T03:09:29.701Z,540.00
2023-05-14T03:10:29.744Z,536.00
2023-05-14T03:11:29.770Z,532.00
2023-05-14T03:12:29.805Z,538.00
2023-05-14T03:13:29.827Z,536.00
2023-05-14T03:14:29.878Z,544.00
2023-05-14T03:15:29.932Z,538.00
2023-05-14T03:16:29.966Z,539.00
2023-05-14T03:17:30.005Z,540.00
2023-05-14T03:18:30.027Z,527.00
2023-05-14T03:19:30.050Z,531.00
2023-05-14T03:20:30.083Z,534.00
2023-05-14T03:21:30.127Z,532.00
2023-05-14T03:22:30.169Z,532.00
2023-05-14T03:23:30.210Z,539.00
2023-05-14T03:24:30.246Z,541.00
2023-05-14T03:25:30.287Z,528.00
2023-05-14T03:26:30.331Z,533.00
2023-05-14T03:27:30.353Z,540.00
2023-05-14T03:28:30.388Z,539.00
2023-05-14T03:29:30.476Z,541.00
2023-05-14T03:30:30.534Z,542.00
2023-05-14T03:31:30.509Z,531.00
2023-05-14T03:32:30.582Z,542.00
2023-05-14T03:33:30.578Z,537.00
2023-05-14T03:34:30.617Z,532.00
2023-05-14T03:35:30.656Z,528.00
2023-05-14T03:36:30.681Z,529.00
2023-05-14T03:37:30.716Z,539.00
2023-05-14T03:38:30.736Z,533.00
2023-05-14T03:39:30.765Z,535.00
2023-05-14T03:40:30.869Z,532.00
2023-05-14T03:41:30.850Z,530.00
2023-05-14T03:42:30.891Z,529.00
2023-05-14T03:43:30.948Z,535.00
2023-05-14T03:44:30.950Z,530.00
2023-05-14T03:45:30.994Z,531.00
2023-05-14T03:46:31.035Z,537.00
2023-05-14T03:47:31.106Z,545.00
2023-05-14T03:48:31.159Z,537.00
2023-05-14T03:49:31.144Z,542.00
2023-05-14T03:50:31.161Z,533.00
2023-05-14T03:51:31.195Z,535.00
2023-05-14T03:52:31.233Z,540.00
2023-05-14T03:53:31.283Z,534.00
2023-05-14T03:54:31.277Z,531.00
2023-05-14T03:55:31.330Z,537.00
2023-05-14T03:56:31.342Z,540.00
2023-05-14T03:57:31.371Z,536.00
2023-05-14T03:58:31.385Z,542.00
2023-05-14T03:59:31.406Z,532.00
2023-05-14T04:00:31.431Z,535.00
2023-05-14T04:01:31.445Z,537.00
2023-05-14T04:02:31.518Z,542.00
2023-05-14T04:03:31.807Z,542.00
2023-05-14T04:04:31.557Z,540.00
2023-05-14T04:05:31.617Z,538.00
2023-05-14T04:06:31.561Z,536.00
2023-05-14T04:07:31.601Z,539.00
2023-05-14T04:08:31.617Z,540.00
2023-05-14T04:09:31.614Z,533.00
2023-05-14T04:10:31.634Z,537.00
2023-05-14T04:11:31.677Z,538.00
2023-05-14T04:12:31.697Z,539.00
2023-05-14T04:13:31.765Z,535.00
2023-05-14T04:14:31.777Z,535.00
2023-05-14T04:15:31.824Z,536.00
2023-05-14T04:16:31.905Z,535.00
2023-05-14T04:17:32.661Z,530.00
2023-05-14T04:18:31.954Z,537.00
2023-05-14T04:19:31.929Z,536.00
2023-05-14T04:20:31.946Z,535.00
2023-05-14T04:21:32.515Z,536.00
2023-05-14T04:22:32.037Z,537.00
2023-05-14T04:23:32.071Z,537.00
2023-05-14T04:24:32.111Z,541.00
2023-05-14T04:25:32.141Z,539.00
2023-05-14T04:26:32.164Z,542.00
2023-05-14T04:27:32.177Z,539.00
2023-05-14T04:28:32.227Z,534.00
2023-05-14T04:29:32.258Z,537.00
2023-05-14T04:30:32.313Z,543.00
2023-05-14T04:31:32.342Z,537.00
2023-05-14T04:32:32.382Z,533.00
2023-05-14T04:33:32.407Z,534.00
2023-05-14T04:34:32.436Z,531.00
2023-05-14T04:35:32.455Z,533.00
2023-05-14T04:36:32.504Z,534.00
2023-05-14T04:37:32.512Z,532.00
2023-05-14T04:38:32.545Z,539.00
2023-05-14T04:39:32.595Z,544.00
2023-05-14T04:40:32.604Z,542.00
2023-05-14T04:41:32.623Z,538.00
2023-05-14T04:42:32.667Z,534.00
2023-05-14T04:43:32.697Z,537.00
2023-05-14T04:44:32.692Z,535.00
2023-05-14T04:45:34.325Z,536.00
2023-05-14T04:46:32.799Z,541.00
2023-05-14T04:47:32.781Z,540.00
2023-05-14T04:48:32.791Z,541.00
2023-05-14T04:49:32.819Z,534.00
2023-05-14T04:50:32.866Z,536.00
2023-05-14T04:51:32.889Z,545.00
2023-05-14T04:52:32.917Z,538.00
2023-05-14T04:53:32.930Z,534.00
2023-05-14T04:54:33.054Z,537.00
2023-05-14T04:55:33.059Z,538.00
2023-05-14T04:56:33.072Z,536.00
2023-05-14T04:57:33.112Z,542.00
2023-05-14T04:58:34.809Z,540.00
2023-05-14T04:59:33.186Z,539.00
2023-05-14T05:00:33.227Z,537.00
2023-05-14T05:01:33.353Z,534.00
2023-05-14T05:02:33.309Z,541.00
2023-05-14T05:03:33.455Z,537.00
2023-05-14T05:04:33.366Z,537.00
2023-05-14T05:05:33.390Z,544.00
2023-05-14T05:06:33.439Z,540.00
2023-05-14T05:07:33.458Z,532.00
2023-05-14T05:08:33.490Z,535.00
2023-05-14T05:09:33.524Z,531.00
2023-05-14T05:10:33.531Z,528.00
2023-05-14T05:11:33.601Z,525.00
2023-05-14T05:12:33.605Z,521.00
2023-05-14T05:13:33.637Z,523.00
2023-05-14T05:14:33.666Z,525.00
2023-05-14T05:15:33.687Z,522.00
2023-05-14T05:16:33.726Z,523.00
2023-05-14T05:17:33.777Z,522.00
2023-05-14T05:18:33.864Z,528.00
2023-05-14T05:19:43.098Z,529.00
2023-05-14T05:20:34.780Z,530.00
2023-05-14T05:21:33.784Z,530.00
2023-05-14T05:22:33.739Z,531.00
2023-05-14T05:23:33.800Z,536.00
2023-05-14T05:24:33.692Z,533.00
2023-05-14T05:25:33.658Z,541.00
2023-05-14T05:26:33.662Z,532.00
2023-05-14T05:27:33.618Z,532.00
2023-05-14T05:28:33.616Z,538.00
2023-05-14T05:29:33.642Z,528.00
2023-05-14T05:30:33.661Z,530.00
2023-05-14T05:31:33.736Z,528.00
2023-05-14T05:32:33.751Z,530.00
2023-05-14T05:33:33.765Z,526.00
2023-05-14T05:34:33.790Z,534.00
2023-05-14T05:35:33.835Z,531.00
2023-05-14T05:36:33.869Z,527.00
2023-05-14T05:37:33.991Z,529.00
2023-05-14T05:38:33.914Z,525.00
2023-05-14T05:39:33.925Z,536.00
2023-05-14T05:40:33.940Z,526.00
2023-05-14T05:41:33.961Z,530.00
2023-05-14T05:42:33.968Z,529.00
2023-05-14T05:43:33.973Z,528.00
2023-05-14T05:44:33.983Z,530.00
2023-05-14T05:45:34.000Z,528.00
2023-05-14T05:46:34.042Z,534.00
2023-05-14T05:47:34.076Z,533.00
2023-05-14T05:48:34.078Z,530.00
2023-05-14T05:49:34.093Z,535.00
2023-05-14T05:50:34.117Z,520.00
2023-05-14T05:51:35.033Z,525.00
2023-05-14T05:52:34.122Z,528.00
2023-05-14T05:53:34.157Z,531.00
2023-05-14T05:54:34.165Z,539.00
2023-05-14T05:55:34.212Z,535.00
2023-05-14T05:56:34.245Z,532.00
2023-05-14T05:57:34.284Z,534.00
2023-05-14T05:58:34.303Z,539.00
2023-05-14T05:59:34.347Z,535.00
2023-05-14T06:00:34.328Z,536.00
2023-05-14T06:01:34.362Z,525.00
2023-05-14T06:02:34.436Z,532.00
2023-05-14T06:03:34.423Z,526.00
2023-05-14T06:04:34.455Z,534.00
2023-05-14T06:05:34.508Z,530.00
2023-05-14T06:06:34.539Z,527.00
2023-05-14T06:07:34.560Z,529.00
2023-05-14T06:08:34.567Z,527.00
2023-05-14T06:09:34.590Z,521.00
2023-05-14T06:10:34.628Z,522.00
2023-05-14T06:11:34.668Z,521.00
2023-05-14T06:12:34.715Z,516.00
2023-05-14T06:13:34.737Z,526.00
2023-05-14T06:14:34.774Z,522.00
2023-05-14T06:15:34.815Z,518.00
2023-05-14T06:16:34.910Z,521.00
2023-05-14T06:17:34.902Z,527.00
2023-05-14T06:18:34.999Z,525.00
2023-05-14T06:19:34.970Z,524.00
2023-05-14T06:20:35.002Z,520.00
2023-05-14T06:21:35.053Z,526.00
2023-05-14T06:22:35.097Z,525.00
2023-05-14T06:23:35.160Z,524.00
2023-05-14T06:24:36.053Z,526.00
2023-05-14T06:25:35.206Z,527.00
2023-05-14T06:26:35.247Z,523.00
2023-05-14T06:27:35.280Z,524.00
2023-05-14T06:28:35.307Z,523.00
2023-05-14T06:29:35.344Z,524.00
2023-05-14T06:30:35.393Z,519.00
2023-05-14T06:31:35.458Z,523.00
2023-05-14T06:32:35.522Z,523.00
2023-05-14T06:33:35.507Z,519.00
2023-05-14T06:34:35.563Z,524.00
2023-05-14T06:35:35.610Z,525.00
2023-05-14T06:36:35.627Z,528.00
2023-05-14T06:37:35.673Z,524.00
2023-05-14T06:38:35.695Z,529.00
2023-05-14T06:39:35.733Z,524.00
2023-05-14T06:40:35.745Z,530.00
2023-05-14T06:41:35.754Z,525.00
2023-05-14T06:42:35.800Z,525.00
2023-05-14T06:43:35.830Z,522.00
2023-05-14T06:44:35.846Z,518.00
2023-05-14T06:45:35.883Z,519.00
2023-05-14T06:46:35.917Z,523.00
2023-05-14T06:47:35.998Z,521.00
2023-05-14T06:48:36.035Z,524.00
2023-05-14T06:49:36.045Z,521.00
2023-05-14T06:50:36.064Z,522.00
2023-05-14T06:51:36.116Z,524.00
2023-05-14T06:52:36.157Z,516.00
2023-05-14T06:53:36.197Z,519.00
2023-05-14T06:54:36.248Z,516.00
2023-05-14T06:55:36.276Z,523.00
2023-05-14T06:56:36.326Z,519.00
2023-05-14T06:57:37.291Z,514.00
2023-05-14T06:58:36.385Z,522.00
2023-05-14T06:59:36.423Z,513.00
2023-05-14T07:00:36.496Z,516.00
2023-05-14T07:01:36.529Z,519.00
2023-05-14T07:02:36.580Z,517.00
2023-05-14T07:03:36.579Z,514.00
2023-05-14T07:04:36.735Z,515.00
2023-05-14T07:05:36.658Z,520.00
2023-05-14T07:06:36.702Z,519.00
2023-05-14T07:07:36.735Z,513.00
2023-05-14T07:08:36.765Z,517.00
2023-05-14T07:09:36.796Z,509.00
2023-05-14T07:10:36.829Z,514.00
2023-05-14T07:11:36.872Z,517.00
2023-05-14T07:12:36.908Z,512.00
2023-05-14T07:13:36.940Z,512.00
2023-05-14T07:14:36.981Z,510.00
2023-05-14T07:15:37.041Z,510.00
2023-05-14T07:16:37.143Z,510.00
2023-05-14T07:17:37.140Z,512.00
2023-05-14T07:18:37.177Z,516.00
2023-05-14T07:19:37.181Z,513.00
2023-05-14T07:20:37.218Z,508.00
2023-05-14T07:21:37.269Z,513.00
2023-05-14T07:22:37.297Z,505.00
2023-05-14T07:23:37.323Z,511.00
2023-05-14T07:24:37.351Z,515.00
2023-05-14T07:25:37.392Z,515.00
2023-05-14T07:26:37.430Z,517.00
2023-05-14T07:27:37.453Z,510.00
2023-05-14T07:28:37.500Z,518.00
2023-05-14T07:29:37.539Z,513.00
2023-05-14T07:30:37.582Z,516.00
2023-05-14T07:31:37.787Z,512.00
2023-05-14T07:32:37.711Z,508.00
2023-05-14T07:33:37.660Z,500.00
2023-05-14T07:34:37.678Z,510.00
2023-05-14T07:35:37.710Z,502.00
2023-05-14T07:36:37.732Z,500.00
2023-05-14T07:37:37.764Z,505.00
2023-05-14T07:38:37.796Z,503.00
2023-05-14T07:39:37.811Z,504.00
2023-05-14T07:40:37.821Z,506.00
2023-05-14T07:41:37.824Z,500.00
2023-05-14T07:42:37.850Z,506.00
2023-05-14T07:43:37.864Z,500.00
2023-05-14T07:44:37.885Z,505.00
2023-05-14T07:45:38.590Z,502.00
2023-05-14T07:46:37.879Z,504.00
2023-05-14T07:47:37.905Z,504.00
2023-05-14T07:48:37.970Z,509.00
2023-05-14T07:49:37.900Z,508.00
2023-05-14T07:50:37.904Z,504.00
2023-05-14T07:51:37.907Z,509.00
2023-05-14T07:52:37.907Z,509.00
2023-05-14T07:53:37.892Z,509.00
2023-05-14T07:54:37.935Z,506.00
2023-05-14T07:55:37.919Z,506.00
2023-05-14T07:56:37.932Z,501.00
2023-05-14T07:57:37.938Z,509.00
2023-05-14T07:58:37.920Z,509.00
2023-05-14T07:59:37.927Z,509.00
2023-05-14T08:00:37.925Z,509.00
2023-05-14T08:01:39.462Z,505.00
2023-05-14T08:02:38.058Z,506.00
2023-05-14T08:03:38.008Z,508.00
2023-05-14T08:04:38.102Z,513.00
2023-05-14T08:05:37.941Z,506.00
2023-05-14T08:06:37.942Z,512.00
2023-05-14T08:07:37.950Z,512.00
2023-05-14T08:08:37.938Z,515.00
2023-05-14T08:09:37.942Z,515.00
2023-05-14T08:10:38.015Z,518.00
2023-05-14T08:11:37.934Z,519.00
2023-05-14T08:12:37.918Z,522.00
2023-05-14T08:13:37.906Z,526.00
2023-05-14T08:14:37.902Z,517.00
2023-05-14T08:15:37.888Z,520.00
2023-05-14T08:16:37.992Z,523.00
2023-05-14T08:17:37.915Z,525.00
2023-05-14T08:18:37.908Z,520.00
2023-05-14T08:19:37.832Z,531.00
2023-05-14T08:20:37.831Z,525.00
2023-05-14T08:21:37.820Z,529.00
2023-05-14T08:22:37.822Z,529.00
2023-05-14T08:23:37.825Z,535.00
2023-05-14T08:24:37.826Z,528.00
2023-05-14T08:25:37.820Z,538.00
2023-05-14T08:26:37.821Z,539.00
2023-05-14T08:27:37.796Z,534.00
2023-05-14T08:28:37.808Z,541.00
2023-05-14T08:29:37.800Z,537.00
2023-05-14T08:30:37.822Z,537.00
2023-05-14T08:31:37.775Z,545.00
2023-05-14T08:32:37.770Z,549.00
2023-05-14T08:33:37.756Z,537.00
2023-05-14T08:34:37.771Z,546.00
2023-05-14T08:35:37.746Z,543.00
2023-05-14T08:36:37.750Z,544.00
2023-05-14T08:37:37.767Z,545.00
2023-05-14T08:38:37.764Z,547.00
2023-05-14T08:39:37.771Z,548.00
2023-05-14T08:40:37.764Z,547.00
2023-05-14T08:41:37.770Z,554.00
2023-05-14T08:42:37.784Z,548.00
2023-05-14T08:43:37.798Z,554.00
2023-05-14T08:44:37.818Z,551.00
2023-05-14T08:45:37.824Z,552.00
2023-05-14T08:46:37.847Z,553.00
2023-05-14T08:47:37.862Z,558.00
2023-05-14T08:48:37.961Z,550.00
2023-05-14T08:49:37.839Z,557.00
2023-05-14T08:50:37.865Z,560.00
2023-05-14T08:51:37.867Z,558.00
2023-05-14T08:52:37.899Z,559.00
2023-05-14T08:53:37.895Z,558.00
2023-05-14T08:54:37.926Z,555.00
2023-05-14T08:55:37.945Z,555.00
2023-05-14T08:56:38.010Z,567.00
2023-05-14T08:57:38.054Z,558.00
2023-05-14T08:58:38.090Z,562.00
2023-05-14T08:59:38.119Z,565.00
2023-05-14T09:00:38.137Z,564.00
2023-05-14T09:01:38.226Z,560.00
2023-05-14T09:02:38.334Z,561.00
2023-05-14T09:03:38.219Z,557.00
2023-05-14T09:04:38.224Z,565.00
2023-05-14T09:05:38.256Z,560.00
2023-05-14T09:06:38.287Z,563.00
2023-05-14T09:07:38.273Z,569.00
2023-05-14T09:08:38.286Z,560.00
2023-05-14T09:09:38.294Z,573.00
2023-05-14T09:10:38.293Z,566.00
2023-05-14T09:11:38.320Z,565.00
2023-05-14T09:12:38.335Z,560.00
2023-05-14T09:13:38.385Z,567.00
2023-05-14T09:14:38.401Z,566.00
2023-05-14T09:15:38.425Z,565.00
2023-05-14T09:16:38.462Z,566.00
2023-05-14T09:17:38.464Z,564.00
2023-05-14T09:18:38.479Z,568.00
2023-05-14T09:19:38.481Z,567.00
2023-05-14T09:20:38.522Z,572.00
2023-05-14T09:21:38.574Z,564.00
2023-05-14T09:22:38.540Z,567.00
2023-05-14T09:23:38.559Z,563.00
2023-05-14T09:24:38.589Z,573.00
2023-05-14T09:25:38.609Z,566.00
2023-05-14T09:26:38.616Z,570.00
2023-05-14T09:27:38.629Z,570.00
2023-05-14T09:28:38.613Z,570.00
2023-05-14T09:29:38.623Z,568.00
2023-05-14T09:30:38.647Z,567.00
2023-05-14T09:31:38.680Z,565.00
2023-05-14T09:32:38.725Z,567.00
2023-05-14T09:33:38.658Z,571.00
2023-05-14T09:34:38.680Z,576.00
2023-05-14T09:35:38.688Z,567.00
2023-05-14T09:36:38.709Z,570.00
2023-05-14T09:37:38.745Z,569.00
2023-05-14T09:38:38.740Z,570.00
2023-05-14T09:39:38.780Z,566.00
2023-05-14T09:40:38.784Z,565.00
2023-05-14T09:41:38.772Z,571.00
2023-05-14T09:42:38.778Z,563.00
2023-05-14T09:43:38.783Z,573.00
2023-05-14T09:44:38.763Z,567.00
2023-05-14T09:45:38.755Z,569.00
2023-05-14T09:46:38.778Z,571.00
2023-05-14T09:47:38.963Z,574.00
2023-05-14T09:48:38.885Z,567.00
2023-05-14T09:49:38.789Z,567.00
2023-05-14T09:50:38.787Z,573.00
2023-05-14T09:51:38.799Z,564.00
2023-05-14T09:52:38.804Z,567.00
2023-05-14T09:53:38.807Z,567.00
2023-05-14T09:54:38.807Z,571.00
2023-05-14T09:55:38.826Z,570.00
2023-05-14T09:56:38.818Z,565.00
2023-05-14T09:57:38.812Z,571.00
2023-05-14T09:58:38.798Z,572.00
2023-05-14T09:59:38.827Z,572.00
2023-05-14T10:00:38.833Z,568.00
2023-05-14T10:01:38.938Z,575.00
2023-05-14T10:02:39.055Z,565.00
2023-05-14T10:03:38.855Z,570.00
2023-05-14T10:04:38.936Z,572.00
2023-05-14T10:05:38.865Z,568.00
2023-05-14T10:06:38.875Z,569.00
2023-05-14T10:07:38.957Z,573.00
2023-05-14T10:08:38.906Z,566.00
2023-05-14T10:09:38.870Z,565.00
2023-05-14T10:10:38.881Z,568.00
2023-05-14T10:11:38.915Z,565.00
2023-05-14T10:12:38.899Z,571.00
2023-05-14T10:13:38.891Z,575.00
2023-05-14T10:14:38.927Z,571.00
2023-05-14T10:15:38.961Z,574.00
2023-05-14T10:16:38.984Z,571.00
2023-05-14T10:17:38.981Z,572.00
2023-05-14T10:18:38.998Z,576.00
2023-05-14T10:19:38.961Z,572.00
2023-05-14T10:20:38.969Z,567.00
2023-05-14T10:21:38.973Z,566.00
2023-05-14T10:22:38.997Z,575.00
2023-05-14T10:23:38.995Z,570.00
2023-05-14T10:24:39.028Z,571.00
2023-05-14T10:25:39.028Z,581.00
2023-05-14T10:26:39.043Z,564.00
2023-05-14T10:27:39.016Z,576.00
2023-05-14T10:28:39.021Z,577.00
2023-05-14T10:29:39.034Z,568.00
2023-05-14T10:30:39.025Z,572.00
2023-05-14T10:31:39.040Z,574.00
2023-05-14T10:32:39.044Z,576.00
2023-05-14T10:33:39.023Z,576.00
2023-05-14T10:34:39.018Z,578.00
2023-05-14T10:35:39.032Z,579.00
2023-05-14T10:36:39.053Z,567.00
2023-05-14T10:37:39.085Z,573.00
2023-05-14T10:38:39.073Z,570.00
2023-05-14T10:39:39.071Z,570.00
2023-05-14T10:40:39.058Z,572.00
2023-05-14T10:41:39.057Z,575.00
2023-05-14T10:42:39.069Z,572.00
2023-05-14T10:43:39.191Z,573.00
2023-05-14T10:44:39.119Z,575.00
2023-05-14T10:45:39.137Z,569.00
2023-05-14T10:46:39.212Z,571.00
2023-05-14T10:47:39.212Z,580.00
2023-05-14T10:48:39.210Z,572.00
2023-05-14T10:49:43.245Z,577.00
2023-05-14T10:50:39.222Z,577.00
2023-05-14T10:51:39.276Z,575.00
2023-05-14T10:52:39.193Z,572.00
2023-05-14T10:53:39.177Z,578.00
2023-05-14T10:54:39.179Z,578.00
2023-05-14T10:55:39.159Z,575.00
2023-05-14T10:56:39.150Z,577.00
2023-05-14T10:57:39.147Z,578.00
2023-05-14T10:58:39.127Z,576.00
2023-05-14T10:59:39.108Z,579.00
2023-05-14T11:00:39.078Z,571.00
2023-05-14T11:01:39.114Z,569.00
2023-05-14T11:02:39.224Z,574.00
2023-05-14T11:03:39.089Z,567.00
2023-05-14T11:04:39.012Z,577.00
2023-05-14T11:05:38.990Z,575.00
2023-05-14T11:06:38.985Z,573.00
2023-05-14T11:07:38.971Z,575.00
2023-05-14T11:08:38.957Z,573.00
2023-05-14T11:09:38.930Z,576.00
2023-05-14T11:10:38.923Z,573.00
2023-05-14T11:11:38.931Z,580.00
2023-05-14T11:12:38.984Z,577.00
2023-05-14T11:13:38.993Z,571.00
2023-05-14T11:14:38.944Z,580.00
2023-05-14T11:15:38.988Z,575.00
2023-05-14T11:16:38.996Z,570.00
2023-05-14T11:17:39.016Z,576.00
2023-05-14T11:18:39.031Z,572.00
2023-05-14T11:19:39.015Z,574.00
2023-05-14T11:20:39.036Z,568.00
2023-05-14T11:21:39.077Z,574.00
2023-05-14T11:22:39.063Z,569.00
2023-05-14T11:23:39.109Z,575.00
2023-05-14T11:24:39.152Z,573.00
2023-05-14T11:25:39.179Z,574.00
2023-05-14T11:26:39.261Z,579.00
2023-05-14T11:27:39.274Z,579.00
2023-05-14T11:28:39.300Z,578.00
2023-05-14T11:29:39.312Z,573.00
2023-05-14T11:30:39.395Z,576.00
2023-05-14T11:31:39.424Z,584.00
2023-05-14T11:32:39.496Z,574.00
2023-05-14T11:33:39.458Z,579.00
2023-05-14T11:34:39.490Z,577.00
2023-05-14T11:35:39.533Z,579.00
2023-05-14T11:36:39.567Z,570.00
2023-05-14T11:37:39.603Z,579.00
2023-05-14T11:38:39.637Z,579.00
2023-05-14T11:39:39.733Z,576.00
2023-05-14T11:40:39.712Z,582.00
2023-05-14T11:41:39.715Z,576.00
2023-05-14T11:42:39.741Z,581.00
2023-05-14T11:43:39.760Z,575.00
2023-05-14T11:44:39.770Z,577.00
2023-05-14T11:45:39.781Z,572.00
2023-05-14T11:46:39.903Z,580.00
2023-05-14T11:47:39.864Z,576.00
2023-05-14T11:48:39.813Z,576.00
2023-05-14T11:49:39.834Z,574.00
2023-05-14T11:50:39.879Z,578.00
2023-05-14T11:51:39.900Z,579.00
2023-05-14T11:52:39.924Z,579.00
2023-05-14T11:53:39.974Z,577.00
2023-05-14T11:54:39.990Z,580.00
2023-05-14T11:55:40.020Z,577.00
2023-05-14T11:56:40.062Z,579.00
2023-05-14T11:57:40.097Z,577.00
2023-05-14T11:58:40.152Z,575.00
2023-05-14T11:59:40.193Z,576.00
2023-05-14T12:00:40.233Z,580.00
2023-05-14T12:01:40.282Z,574.00
2023-05-14T12:02:40.372Z,577.00
2023-05-14T12:03:40.524Z,578.00
2023-05-14T12:04:40.464Z,576.00
2023-05-14T12:05:40.462Z,574.00
2023-05-14T12:06:40.474Z,579.00
2023-05-14T12:07:40.514Z,583.00
2023-05-14T12:08:40.552Z,581.00
2023-05-14T12:09:41.172Z,580.00
2023-05-14T12:10:40.713Z,585.00
2023-05-14T12:11:40.655Z,583.00
2023-05-14T12:12:40.694Z,587.00
2023-05-14T12:13:40.711Z,579.00
2023-05-14T12:14:40.714Z,577.00
2023-05-14T12:15:40.781Z,586.00
2023-05-14T12:16:40.798Z,573.00
2023-05-14T12:17:40.839Z,578.00
2023-05-14T12:18:40.935Z,578.00
2023-05-14T12:19:40.866Z,584.00
2023-05-14T12:20:40.867Z,586.00
2023-05-14T12:21:40.905Z,575.00
2023-05-14T12:22:40.967Z,578.00
2023-05-14T12:23:40.970Z,586.00
2023-05-14T12:24:40.997Z,577.00
2023-05-14T12:25:41.047Z,579.00
2023-05-14T12:26:41.042Z,579.00
2023-05-14T12:27:41.057Z,579.00
2023-05-14T12:28:41.072Z,573.00